createdAt,value
2019-02-27T09:10:18.676Z,5.70
2019-02-27T09:11:18.915Z,6.20
2019-02-27T09:12:18.947Z,5.80
2019-02-27T09:13:04.882Z,5.70
2019-02-27T09:13:58.386Z,5.80
2019-02-27T09:14:57.545Z,5.70
2019-02-27T09:15:57.401Z,9.00
2019-02-27T09:16:57.403Z,9.50
2019-02-27T09:17:59.251Z,10.20
2019-02-27T09:18:57.536Z,8.40
2019-02-27T09:19:57.334Z,7.00
2019-02-27T09:20:57.492Z,6.70
2019-02-27T09:21:57.337Z,7.60
2019-02-27T09:22:57.295Z,6.90
2019-02-27T09:23:57.467Z,7.00
2019-02-27T09:24:57.482Z,6.80
2019-02-27T09:25:57.638Z,7.10
2019-02-27T09:26:57.243Z,6.70
2019-02-27T09:27:57.473Z,6.30
2019-02-27T09:28:57.408Z,6.80
2019-02-27T09:29:57.420Z,6.50
2019-02-27T09:30:57.441Z,6.70
2019-02-27T09:31:57.438Z,6.40
2019-02-27T09:32:57.563Z,6.60
2019-02-27T09:33:57.172Z,6.20
2019-02-27T09:34:59.617Z,6.20
2019-02-27T09:35:58.248Z,6.20
2019-02-27T09:36:57.600Z,6.50
2019-02-27T09:37:57.831Z,6.50
2019-02-27T09:38:57.857Z,6.60
2019-02-27T09:39:57.780Z,6.50
2019-02-27T09:40:57.667Z,6.80
2019-02-27T09:41:57.631Z,6.80
2019-02-27T09:42:57.427Z,6.40
2019-02-27T09:43:58.557Z,6.20
2019-02-27T09:44:57.633Z,6.00
2019-02-27T09:45:57.584Z,6.70
2019-02-27T09:46:57.574Z,6.50
2019-02-27T09:47:59.979Z,5.90
2019-02-27T09:48:57.557Z,6.40
2019-02-27T09:49:57.550Z,6.80
2019-02-27T09:50:57.525Z,6.00
